Mountain View, California
Current Conditions -  °F | °C
As of 3:56 PM on Monday 24 Nov 2014 (Local Time) from KNUQ Reporting Station
Clear Clear  
Wind Chill: 67°   Ceiling: Unl
Heat Index: 67°   Visibility: 10mi
Dew Point: 37°   Wind: 3mph
Humidity: 33%   Direction: 340°NNW
Pressure: 30.34"   Gusts: NA
Location:  37.39°N, 122.08°W
Report Text: KNUQ 242356Z AUTO 34003KT 10SM CLR 19/03 A3034 RMK AO2 SLP276 T01940028 10200 20144 56008 TSNO
Loading
Personal Weather Stations






























Interactive Weather Map New forecast layout! Learn more

10-Day Weather Forecast

Advertisements
Track Severe Weather on mobile